Aldrich, Missouri
Current Conditions -  °F | °C
As of 9:52 PM on Saturday 22 Nov 2014 (Local Time) from KSGF Reporting Station
Clear Clear  
Wind Chill: 53°   Ceiling: Unl
Heat Index: 53°   Visibility: 10mi
Dew Point: 50°   Wind: 17mph
Humidity: 89%   Direction: 150°SSE
Pressure: 29.8"   Gusts: NA
Location:  37.55°N, 93.55°W
Report Text: KSGF 230352Z 15015KT 10SM CLR 12/10 A2980 RMK AO2 SLP088 T01170100
Loading
Personal Weather Stations






























Interactive Weather Map New forecast layout! Learn more

10-Day Weather Forecast

Advertisements
Track Severe Weather on mobile